sensor_id;sensor_type;location;lat;lon;timestamp;P1;durP1;ratioP1;P2;durP2;ratioP2
41897;SDS011;27576;53.366;-1.498;2023-04-03T00:01:30;7.43;;;3.70;;
41897;SDS011;27576;53.366;-1.498;2023-04-03T00:03:55;9.40;;;3.83;;
41897;SDS011;27576;53.366;-1.498;2023-04-03T00:06:22;8.70;;;3.53;;
41897;SDS011;27576;53.366;-1.498;2023-04-03T00:08:48;9.25;;;4.22;;
41897;SDS011;27576;53.366;-1.498;2023-04-03T00:11:14;6.40;;;3.55;;
41897;SDS011;27576;53.366;-1.498;2023-04-03T00:13:40;10.57;;;4.22;;
41897;SDS011;27576;53.366;-1.498;2023-04-03T00:16:06;8.63;;;4.60;;
41897;SDS011;27576;53.366;-1.498;2023-04-03T00:18:33;6.95;;;4.03;;
41897;SDS011;27576;53.366;-1.498;2023-04-03T00:20:58;11.55;;;4.80;;
41897;SDS011;27576;53.366;-1.498;2023-04-03T00:23:24;9.82;;;4.22;;
41897;SDS011;27576;53.366;-1.498;2023-04-03T00:25:50;9.27;;;4.30;;
41897;SDS011;27576;53.366;-1.498;2023-04-03T00:28:16;8.05;;;3.90;;
41897;SDS011;27576;53.366;-1.498;2023-04-03T00:30:41;10.10;;;4.63;;
41897;SDS011;27576;53.366;-1.498;2023-04-03T00:33:07;8.95;;;4.80;;
41897;SDS011;27576;53.366;-1.498;2023-04-03T00:35:34;11.23;;;4.70;;
41897;SDS011;27576;53.366;-1.498;2023-04-03T00:38:00;8.85;;;3.92;;
41897;SDS011;27576;53.366;-1.498;2023-04-03T00:40:27;7.68;;;4.43;;
41897;SDS011;27576;53.366;-1.498;2023-04-03T00:42:57;9.20;;;4.70;;
41897;SDS011;27576;53.366;-1.498;2023-04-03T00:45:45;9.75;;;4.30;;
41897;SDS011;27576;53.366;-1.498;2023-04-03T00:48:15;8.52;;;4.15;;
41897;SDS011;27576;53.366;-1.498;2023-04-03T00:50:45;8.18;;;4.28;;
41897;SDS011;27576;53.366;-1.498;2023-04-03T00:53:12;8.57;;;4.93;;
41897;SDS011;27576;53.366;-1.498;2023-04-03T00:55:42;7.35;;;4.47;;
41897;SDS011;27576;53.366;-1.498;2023-04-03T00:58:09;9.40;;;4.28;;
41897;SDS011;27576;53.366;-1.498;2023-04-03T01:00:37;13.13;;;4.93;;
41897;SDS011;27576;53.366;-1.498;2023-04-03T01:03:07;11.95;;;5.15;;
41897;SDS011;27576;53.366;-1.498;2023-04-03T01:05:32;10.23;;;4.40;;
41897;SDS011;27576;53.366;-1.498;2023-04-03T01:07:58;8.07;;;4.13;;
41897;SDS011;27576;53.366;-1.498;2023-04-03T01:10:24;7.72;;;4.57;;
41897;SDS011;27576;53.366;-1.498;2023-04-03T01:12:51;7.28;;;4.88;;
41897;SDS011;27576;53.366;-1.498;2023-04-03T01:20:22;14.23;;;4.90;;
41897;SDS011;27576;53.366;-1.498;2023-04-03T01:25:39;9.18;;;4.10;;
41897;SDS011;27576;53.366;-1.498;2023-04-03T01:28:05;9.68;;;4.80;;
41897;SDS011;27576;53.366;-1.498;2023-04-03T01:30:34;5.05;;;3.83;;
41897;SDS011;27576;53.366;-1.498;2023-04-03T01:33:04;6.00;;;3.92;;
41897;SDS011;27576;53.366;-1.498;2023-04-03T01:35:30;5.45;;;3.78;;
41897;SDS011;27576;53.366;-1.498;2023-04-03T01:37:55;9.65;;;4.85;;
41897;SDS011;27576;53.366;-1.498;2023-04-03T01:40:21;9.38;;;4.20;;
41897;SDS011;27576;53.366;-1.498;2023-04-03T01:42:46;8.13;;;4.60;;
41897;SDS011;27576;53.366;-1.498;2023-04-03T01:45:11;8.30;;;4.57;;
41897;SDS011;27576;53.366;-1.498;2023-04-03T01:47:37;7.00;;;4.50;;
41897;SDS011;27576;53.366;-1.498;2023-04-03T01:50:02;9.65;;;4.05;;
41897;SDS011;27576;53.366;-1.498;2023-04-03T01:52:29;7.32;;;4.55;;
41897;SDS011;27576;53.366;-1.498;2023-04-03T01:54:55;12.00;;;5.25;;
41897;SDS011;27576;53.366;-1.498;2023-04-03T01:57:20;12.90;;;4.57;;
41897;SDS011;27576;53.366;-1.498;2023-04-03T01:59:45;8.45;;;4.20;;
41897;SDS011;27576;53.366;-1.498;2023-04-03T02:02:11;7.53;;;4.40;;
41897;SDS011;27576;53.366;-1.498;2023-04-03T02:04:37;8.07;;;4.10;;
41897;SDS011;27576;53.366;-1.498;2023-04-03T02:07:02;8.55;;;4.72;;
41897;SDS011;27576;53.366;-1.498;2023-04-03T02:09:28;8.68;;;4.45;;
41897;SDS011;27576;53.366;-1.498;2023-04-03T02:11:53;11.60;;;4.53;;
41897;SDS011;27576;53.366;-1.498;2023-04-03T02:14:19;7.63;;;4.60;;
41897;SDS011;27576;53.366;-1.498;2023-04-03T02:16:45;8.65;;;3.92;;
41897;SDS011;27576;53.366;-1.498;2023-04-03T02:19:10;8.27;;;4.20;;
41897;SDS011;27576;53.366;-1.498;2023-04-03T02:21:35;8.90;;;4.40;;
41897;SDS011;27576;53.366;-1.498;2023-04-03T02:24:01;6.78;;;4.25;;
41897;SDS011;27576;53.366;-1.498;2023-04-03T02:26:26;7.50;;;4.40;;
41897;SDS011;27576;53.366;-1.498;2023-04-03T02:28:52;14.23;;;5.10;;
41897;SDS011;27576;53.366;-1.498;2023-04-03T02:31:17;9.57;;;4.70;;
41897;SDS011;27576;53.366;-1.498;2023-04-03T02:33:43;9.73;;;4.45;;
41897;SDS011;27576;53.366;-1.498;2023-04-03T02:36:08;6.38;;;3.97;;
41897;SDS011;27576;53.366;-1.498;2023-04-03T02:38:34;6.93;;;4.60;;
41897;SDS011;27576;53.366;-1.498;2023-04-03T02:41:04;8.52;;;4.40;;
41897;SDS011;27576;53.366;-1.498;2023-04-03T02:43:31;8.00;;;4.65;;
41897;SDS011;27576;53.366;-1.498;2023-04-03T02:45:56;7.95;;;4.32;;
41897;SDS011;27576;53.366;-1.498;2023-04-03T02:48:22;6.45;;;4.20;;
41897;SDS011;27576;53.366;-1.498;2023-04-03T02:50:48;11.00;;;4.80;;
41897;SDS011;27576;53.366;-1.498;2023-04-03T02:53:13;7.50;;;4.53;;
41897;SDS011;27576;53.366;-1.498;2023-04-03T02:55:40;7.65;;;4.63;;
41897;SDS011;27576;53.366;-1.498;2023-04-03T02:58:05;10.07;;;4.28;;
41897;SDS011;27576;53.366;-1.498;2023-04-03T03:00:31;9.35;;;4.20;;
41897;SDS011;27576;53.366;-1.498;2023-04-03T03:02:56;13.43;;;4.97;;
41897;SDS011;27576;53.366;-1.498;2023-04-03T03:05:22;8.38;;;4.20;;
41897;SDS011;27576;53.366;-1.498;2023-04-03T03:07:47;7.78;;;4.25;;
41897;SDS011;27576;53.366;-1.498;2023-04-03T03:10:13;6.75;;;4.43;;
41897;SDS011;27576;53.366;-1.498;2023-04-03T03:12:38;7.32;;;4.47;;
41897;SDS011;27576;53.366;-1.498;2023-04-03T03:15:05;9.35;;;5.28;;
41897;SDS011;27576;53.366;-1.498;2023-04-03T03:17:31;8.07;;;4.40;;
41897;SDS011;27576;53.366;-1.498;2023-04-03T03:19:56;9.13;;;5.20;;
41897;SDS011;27576;53.366;-1.498;2023-04-03T03:22:22;8.90;;;5.10;;
41897;SDS011;27576;53.366;-1.498;2023-04-03T03:24:47;8.70;;;5.57;;
41897;SDS011;27576;53.366;-1.498;2023-04-03T03:27:12;5.53;;;4.60;;
41897;SDS011;27576;53.366;-1.498;2023-04-03T03:29:38;8.85;;;5.00;;
41897;SDS011;27576;53.366;-1.498;2023-04-03T03:32:03;6.63;;;4.05;;
41897;SDS011;27576;53.366;-1.498;2023-04-03T03:34:29;6.07;;;4.05;;
41897;SDS011;27576;53.366;-1.498;2023-04-03T03:36:54;6.88;;;4.35;;
41897;SDS011;27576;53.366;-1.498;2023-04-03T03:39:20;6.93;;;4.38;;
41897;SDS011;27576;53.366;-1.498;2023-04-03T03:41:46;9.40;;;4.38;;
41897;SDS011;27576;53.366;-1.498;2023-04-03T03:44:11;9.27;;;4.40;;
41897;SDS011;27576;53.366;-1.498;2023-04-03T03:46:36;9.65;;;4.60;;
41897;SDS011;27576;53.366;-1.498;2023-04-03T03:49:02;9.57;;;4.30;;
41897;SDS011;27576;53.366;-1.498;2023-04-03T03:51:27;6.65;;;3.92;;
41897;SDS011;27576;53.366;-1.498;2023-04-03T03:53:52;6.63;;;4.00;;
41897;SDS011;27576;53.366;-1.498;2023-04-03T03:56:18;10.13;;;5.18;;
41897;SDS011;27576;53.366;-1.498;2023-04-03T03:58:43;8.18;;;5.18;;
41897;SDS011;27576;53.366;-1.498;2023-04-03T04:01:08;8.63;;;5.30;;
41897;SDS011;27576;53.366;-1.498;2023-04-03T04:03:34;12.48;;;5.20;;
41897;SDS011;27576;53.366;-1.498;2023-04-03T04:05:59;8.85;;;5.18;;
41897;SDS011;27576;53.366;-1.498;2023-04-03T04:08:25;8.50;;;5.05;;
41897;SDS011;27576;53.366;-1.498;2023-04-03T04:10:50;10.68;;;5.07;;
41897;SDS011;27576;53.366;-1.498;2023-04-03T04:13:16;8.20;;;4.60;;
41897;SDS011;27576;53.366;-1.498;2023-04-03T04:15:42;7.45;;;4.75;;
41897;SDS011;27576;53.366;-1.498;2023-04-03T04:18:08;5.55;;;3.97;;
41897;SDS011;27576;53.366;-1.498;2023-04-03T04:20:34;9.45;;;4.55;;
41897;SDS011;27576;53.366;-1.498;2023-04-03T04:22:59;10.05;;;4.78;;
41897;SDS011;27576;53.366;-1.498;2023-04-03T04:25:25;7.00;;;4.45;;
41897;SDS011;27576;53.366;-1.498;2023-04-03T04:27:50;9.85;;;4.20;;
41897;SDS011;27576;53.366;-1.498;2023-04-03T04:30:16;8.90;;;4.05;;
41897;SDS011;27576;53.366;-1.498;2023-04-03T04:32:41;6.78;;;3.80;;
41897;SDS011;27576;53.366;-1.498;2023-04-03T04:35:07;7.30;;;3.42;;
41897;SDS011;27576;53.366;-1.498;2023-04-03T04:37:32;6.90;;;3.65;;
41897;SDS011;27576;53.366;-1.498;2023-04-03T04:39:58;5.72;;;3.97;;
41897;SDS011;27576;53.366;-1.498;2023-04-03T04:42:23;10.27;;;4.63;;
41897;SDS011;27576;53.366;-1.498;2023-04-03T04:44:48;6.40;;;4.35;;
41897;SDS011;27576;53.366;-1.498;2023-04-03T04:47:14;11.05;;;5.50;;
41897;SDS011;27576;53.366;-1.498;2023-04-03T04:49:39;9.18;;;6.20;;
41897;SDS011;27576;53.366;-1.498;2023-04-03T04:52:05;8.73;;;5.00;;
41897;SDS011;27576;53.366;-1.498;2023-04-03T04:54:31;10.85;;;6.30;;
41897;SDS011;27576;53.366;-1.498;2023-04-03T04:56:57;8.93;;;5.28;;
41897;SDS011;27576;53.366;-1.498;2023-04-03T04:59:22;11.57;;;5.57;;
41897;SDS011;27576;53.366;-1.498;2023-04-03T05:01:47;9.55;;;5.40;;
41897;SDS011;27576;53.366;-1.498;2023-04-03T05:04:13;11.57;;;5.63;;
41897;SDS011;27576;53.366;-1.498;2023-04-03T05:06:38;11.02;;;6.30;;
41897;SDS011;27576;53.366;-1.498;2023-04-03T05:09:04;7.45;;;5.20;;
41897;SDS011;27576;53.366;-1.498;2023-04-03T05:11:30;12.98;;;5.90;;
41897;SDS011;27576;53.366;-1.498;2023-04-03T05:13:55;8.80;;;5.28;;
41897;SDS011;27576;53.366;-1.498;2023-04-03T05:16:20;7.90;;;5.40;;
41897;SDS011;27576;53.366;-1.498;2023-04-03T05:18:46;9.38;;;4.72;;
41897;SDS011;27576;53.366;-1.498;2023-04-03T05:21:11;8.52;;;4.75;;
41897;SDS011;27576;53.366;-1.498;2023-04-03T05:23:37;7.35;;;4.38;;
41897;SDS011;27576;53.366;-1.498;2023-04-03T05:26:02;8.57;;;4.38;;
41897;SDS011;27576;53.366;-1.498;2023-04-03T05:28:28;9.90;;;4.65;;
41897;SDS011;27576;53.366;-1.498;2023-04-03T05:30:54;9.98;;;5.32;;
41897;SDS011;27576;53.366;-1.498;2023-04-03T05:33:21;6.88;;;4.32;;
41897;SDS011;27576;53.366;-1.498;2023-04-03T05:35:46;8.50;;;4.20;;
41897;SDS011;27576;53.366;-1.498;2023-04-03T05:38:12;6.28;;;4.25;;
41897;SDS011;27576;53.366;-1.498;2023-04-03T05:40:37;5.97;;;4.85;;
41897;SDS011;27576;53.366;-1.498;2023-04-03T05:43:03;8.05;;;4.30;;
41897;SDS011;27576;53.366;-1.498;2023-04-03T05:45:29;5.53;;;4.60;;
41897;SDS011;27576;53.366;-1.498;2023-04-03T05:47:55;10.52;;;4.93;;
41897;SDS011;27576;53.366;-1.498;2023-04-03T05:50:20;9.30;;;6.03;;
41897;SDS011;27576;53.366;-1.498;2023-04-03T05:52:46;9.52;;;6.07;;
41897;SDS011;27576;53.366;-1.498;2023-04-03T05:55:14;10.02;;;5.65;;
41897;SDS011;27576;53.366;-1.498;2023-04-03T05:57:39;12.32;;;5.70;;
41897;SDS011;27576;53.366;-1.498;2023-04-03T06:00:05;7.20;;;4.85;;
41897;SDS011;27576;53.366;-1.498;2023-04-03T06:02:32;9.57;;;5.40;;
41897;SDS011;27576;53.366;-1.498;2023-04-03T06:04:57;10.02;;;5.72;;
41897;SDS011;27576;53.366;-1.498;2023-04-03T06:07:23;9.80;;;5.63;;
41897;SDS011;27576;53.366;-1.498;2023-04-03T06:09:52;9.85;;;6.38;;
41897;SDS011;27576;53.366;-1.498;2023-04-03T06:12:19;10.20;;;6.28;;
41897;SDS011;27576;53.366;-1.498;2023-04-03T06:14:45;8.13;;;5.30;;
41897;SDS011;27576;53.366;-1.498;2023-04-03T06:17:10;11.63;;;5.38;;
41897;SDS011;27576;53.366;-1.498;2023-04-03T06:19:37;9.93;;;5.65;;
41897;SDS011;27576;53.366;-1.498;2023-04-03T06:22:03;8.23;;;5.22;;
41897;SDS011;27576;53.366;-1.498;2023-04-03T06:24:29;10.07;;;5.38;;
41897;SDS011;27576;53.366;-1.498;2023-04-03T06:26:55;12.65;;;6.30;;
41897;SDS011;27576;53.366;-1.498;2023-04-03T06:29:21;9.40;;;5.90;;
41897;SDS011;27576;53.366;-1.498;2023-04-03T06:31:47;12.45;;;6.43;;
41897;SDS011;27576;53.366;-1.498;2023-04-03T06:34:13;8.98;;;5.78;;
41897;SDS011;27576;53.366;-1.498;2023-04-03T06:36:39;7.65;;;6.20;;
41897;SDS011;27576;53.366;-1.498;2023-04-03T06:39:05;9.95;;;6.40;;
41897;SDS011;27576;53.366;-1.498;2023-04-03T06:41:32;9.55;;;6.32;;
41897;SDS011;27576;53.366;-1.498;2023-04-03T06:43:58;14.85;;;7.22;;
41897;SDS011;27576;53.366;-1.498;2023-04-03T06:46:24;8.13;;;6.10;;
41897;SDS011;27576;53.366;-1.498;2023-04-03T06:48:51;9.90;;;7.07;;
41897;SDS011;27576;53.366;-1.498;2023-04-03T06:53:48;15.13;;;6.70;;
41897;SDS011;27576;53.366;-1.498;2023-04-03T06:56:14;12.52;;;6.75;;
41897;SDS011;27576;53.366;-1.498;2023-04-03T06:58:40;10.98;;;7.15;;
41897;SDS011;27576;53.366;-1.498;2023-04-03T07:01:06;14.48;;;7.20;;
41897;SDS011;27576;53.366;-1.498;2023-04-03T07:03:32;8.98;;;5.90;;
41897;SDS011;27576;53.366;-1.498;2023-04-03T07:05:57;10.93;;;5.68;;
41897;SDS011;27576;53.366;-1.498;2023-04-03T07:08:23;9.23;;;6.13;;
41897;SDS011;27576;53.366;-1.498;2023-04-03T07:10:50;11.82;;;5.72;;
41897;SDS011;27576;53.366;-1.498;2023-04-03T07:13:16;8.57;;;5.45;;
41897;SDS011;27576;53.366;-1.498;2023-04-03T07:15:42;12.18;;;6.28;;
41897;SDS011;27576;53.366;-1.498;2023-04-03T07:18:08;10.15;;;5.97;;
41897;SDS011;27576;53.366;-1.498;2023-04-03T07:20:33;6.88;;;5.47;;
41897;SDS011;27576;53.366;-1.498;2023-04-03T07:22:58;15.32;;;6.57;;
41897;SDS011;27576;53.366;-1.498;2023-04-03T07:25:24;11.40;;;6.30;;
41897;SDS011;27576;53.366;-1.498;2023-04-03T07:27:50;12.93;;;6.22;;
41897;SDS011;27576;53.366;-1.498;2023-04-03T07:30:15;9.70;;;6.00;;
41897;SDS011;27576;53.366;-1.498;2023-04-03T07:32:41;10.60;;;6.90;;
41897;SDS011;27576;53.366;-1.498;2023-04-03T07:35:07;10.35;;;6.18;;
41897;SDS011;27576;53.366;-1.498;2023-04-03T07:37:32;12.70;;;6.78;;
41897;SDS011;27576;53.366;-1.498;2023-04-03T07:39:58;8.93;;;5.88;;
41897;SDS011;27576;53.366;-1.498;2023-04-03T07:42:24;15.98;;;6.40;;
41897;SDS011;27576;53.366;-1.498;2023-04-03T07:44:52;11.02;;;6.70;;
41897;SDS011;27576;53.366;-1.498;2023-04-03T07:47:18;16.00;;;6.32;;
41897;SDS011;27576;53.366;-1.498;2023-04-03T07:49:43;8.55;;;6.53;;
41897;SDS011;27576;53.366;-1.498;2023-04-03T07:52:08;12.10;;;6.65;;
41897;SDS011;27576;53.366;-1.498;2023-04-03T07:54:34;12.20;;;6.13;;
41897;SDS011;27576;53.366;-1.498;2023-04-03T07:57:00;9.90;;;6.07;;
41897;SDS011;27576;53.366;-1.498;2023-04-03T07:59:26;13.07;;;7.10;;
41897;SDS011;27576;53.366;-1.498;2023-04-03T08:01:51;14.77;;;6.07;;
41897;SDS011;27576;53.366;-1.498;2023-04-03T08:04:17;12.68;;;5.88;;
41897;SDS011;27576;53.366;-1.498;2023-04-03T08:06:42;10.75;;;5.32;;
41897;SDS011;27576;53.366;-1.498;2023-04-03T08:09:07;9.25;;;5.25;;
41897;SDS011;27576;53.366;-1.498;2023-04-03T08:11:33;12.98;;;5.15;;
41897;SDS011;27576;53.366;-1.498;2023-04-03T08:13:58;8.95;;;3.60;;
41897;SDS011;27576;53.366;-1.498;2023-04-03T08:16:24;7.25;;;3.60;;
41897;SDS011;27576;53.366;-1.498;2023-04-03T08:18:53;8.68;;;3.42;;
41897;SDS011;27576;53.366;-1.498;2023-04-03T08:21:19;9.40;;;3.58;;
41897;SDS011;27576;53.366;-1.498;2023-04-03T08:23:47;10.13;;;3.65;;
41897;SDS011;27576;53.366;-1.498;2023-04-03T08:26:16;8.68;;;3.33;;
41897;SDS011;27576;53.366;-1.498;2023-04-03T08:28:43;12.93;;;3.40;;
41897;SDS011;27576;53.366;-1.498;2023-04-03T08:31:14;6.38;;;2.92;;
41897;SDS011;27576;53.366;-1.498;2023-04-03T08:33:40;6.20;;;2.60;;
41897;SDS011;27576;53.366;-1.498;2023-04-03T08:36:07;5.88;;;2.03;;
41897;SDS011;27576;53.366;-1.498;2023-04-03T08:38:41;4.03;;;1.70;;
41897;SDS011;27576;53.366;-1.498;2023-04-03T08:46:32;7.40;;;1.95;;
41897;SDS011;27576;53.366;-1.498;2023-04-03T08:49:10;6.28;;;1.80;;
41897;SDS011;27576;53.366;-1.498;2023-04-03T08:51:47;8.10;;;2.28;;
41897;SDS011;27576;53.366;-1.498;2023-04-03T08:54:25;10.35;;;2.80;;
41897;SDS011;27576;53.366;-1.498;2023-04-03T08:56:55;9.23;;;2.20;;
41897;SDS011;27576;53.366;-1.498;2023-04-03T08:59:26;9.90;;;2.45;;
41897;SDS011;27576;53.366;-1.498;2023-04-03T09:01:54;10.68;;;2.10;;
41897;SDS011;27576;53.366;-1.498;2023-04-03T09:04:22;8.18;;;1.98;;
41897;SDS011;27576;53.366;-1.498;2023-04-03T09:06:50;9.20;;;2.20;;
41897;SDS011;27576;53.366;-1.498;2023-04-03T09:09:30;8.60;;;2.55;;
41897;SDS011;27576;53.366;-1.498;2023-04-03T09:25:49;7.53;;;2.42;;
41897;SDS011;27576;53.366;-1.498;2023-04-03T09:28:18;5.75;;;2.13;;
41897;SDS011;27576;53.366;-1.498;2023-04-03T09:30:43;6.72;;;2.10;;
41897;SDS011;27576;53.366;-1.498;2023-04-03T09:33:09;8.32;;;2.40;;
41897;SDS011;27576;53.366;-1.498;2023-04-03T09:35:37;7.60;;;3.10;;
41897;SDS011;27576;53.366;-1.498;2023-04-03T09:40:40;5.32;;;2.38;;
41897;SDS011;27576;53.366;-1.498;2023-04-03T09:45:41;3.55;;;2.17;;
41897;SDS011;27576;53.366;-1.498;2023-04-03T09:48:09;5.75;;;2.20;;
41897;SDS011;27576;53.366;-1.498;2023-04-03T09:53:36;3.60;;;1.60;;
41897;SDS011;27576;53.366;-1.498;2023-04-03T09:56:04;5.05;;;1.75;;
41897;SDS011;27576;53.366;-1.498;2023-04-03T09:58:45;6.55;;;1.98;;
41897;SDS011;27576;53.366;-1.498;2023-04-03T10:01:21;7.38;;;2.38;;
41897;SDS011;27576;53.366;-1.498;2023-04-03T10:06:32;7.72;;;2.47;;
41897;SDS011;27576;53.366;-1.498;2023-04-03T10:12:11;6.82;;;2.30;;
41897;SDS011;27576;53.366;-1.498;2023-04-03T10:14:40;11.68;;;2.55;;
41897;SDS011;27576;53.366;-1.498;2023-04-03T10:20:02;11.00;;;2.30;;
41897;SDS011;27576;53.366;-1.498;2023-04-03T10:28:03;5.30;;;1.65;;
41897;SDS011;27576;53.366;-1.498;2023-04-03T10:33:39;5.05;;;1.80;;
41897;SDS011;27576;53.366;-1.498;2023-04-03T10:39:39;7.57;;;2.55;;
41897;SDS011;27576;53.366;-1.498;2023-04-03T10:42:20;5.05;;;2.78;;
41897;SDS011;27576;53.366;-1.498;2023-04-03T10:56:18;6.55;;;2.13;;
41897;SDS011;27576;53.366;-1.498;2023-04-03T10:58:47;4.53;;;1.95;;
41897;SDS011;27576;53.366;-1.498;2023-04-03T11:01:20;6.25;;;2.25;;
41897;SDS011;27576;53.366;-1.498;2023-04-03T11:03:56;6.28;;;2.30;;
41897;SDS011;27576;53.366;-1.498;2023-04-03T11:06:25;8.90;;;2.75;;
41897;SDS011;27576;53.366;-1.498;2023-04-03T11:09:05;7.95;;;2.95;;
41897;SDS011;27576;53.366;-1.498;2023-04-03T11:11:42;8.05;;;3.00;;
41897;SDS011;27576;53.366;-1.498;2023-04-03T11:22:41;5.57;;;1.77;;
41897;SDS011;27576;53.366;-1.498;2023-04-03T11:36:03;6.88;;;2.55;;
41897;SDS011;27576;53.366;-1.498;2023-04-03T11:38:34;8.50;;;3.13;;
41897;SDS011;27576;53.366;-1.498;2023-04-03T11:41:06;6.15;;;2.42;;
41897;SDS011;27576;53.366;-1.498;2023-04-03T11:43:35;5.40;;;2.35;;
41897;SDS011;27576;53.366;-1.498;2023-04-03T11:46:20;10.98;;;2.65;;
41897;SDS011;27576;53.366;-1.498;2023-04-03T11:48:47;6.82;;;2.13;;
41897;SDS011;27576;53.366;-1.498;2023-04-03T11:53:42;6.85;;;2.33;;
41897;SDS011;27576;53.366;-1.498;2023-04-03T12:04:15;5.82;;;2.47;;
41897;SDS011;27576;53.366;-1.498;2023-04-03T12:06:49;5.55;;;2.22;;
41897;SDS011;27576;53.366;-1.498;2023-04-03T12:09:34;6.13;;;2.00;;
41897;SDS011;27576;53.366;-1.498;2023-04-03T12:12:27;7.88;;;2.33;;
41897;SDS011;27576;53.366;-1.498;2023-04-03T12:15:21;7.18;;;2.60;;
41897;SDS011;27576;53.366;-1.498;2023-04-03T12:17:59;6.35;;;2.70;;
41897;SDS011;27576;53.366;-1.498;2023-04-03T12:21:03;5.50;;;2.17;;
41897;SDS011;27576;53.366;-1.498;2023-04-03T12:23:30;5.30;;;2.28;;
41897;SDS011;27576;53.366;-1.498;2023-04-03T12:26:04;6.75;;;2.17;;
41897;SDS011;27576;53.366;-1.498;2023-04-03T12:28:44;6.20;;;2.20;;
41897;SDS011;27576;53.366;-1.498;2023-04-03T12:31:11;6.43;;;2.35;;
41897;SDS011;27576;53.366;-1.498;2023-04-03T12:42:11;9.45;;;2.20;;
41897;SDS011;27576;53.366;-1.498;2023-04-03T12:44:49;7.95;;;2.45;;
41897;SDS011;27576;53.366;-1.498;2023-04-03T12:47:22;8.13;;;2.85;;
41897;SDS011;27576;53.366;-1.498;2023-04-03T12:49:50;4.47;;;1.83;;
41897;SDS011;27576;53.366;-1.498;2023-04-03T12:52:32;4.55;;;1.90;;
41897;SDS011;27576;53.366;-1.498;2023-04-03T12:55:02;6.53;;;1.73;;
41897;SDS011;27576;53.366;-1.498;2023-04-03T12:57:32;7.93;;;2.38;;
41897;SDS011;27576;53.366;-1.498;2023-04-03T12:59:57;5.07;;;1.92;;
41897;SDS011;27576;53.366;-1.498;2023-04-03T13:02:24;5.82;;;2.08;;
41897;SDS011;27576;53.366;-1.498;2023-04-03T13:04:58;6.60;;;2.08;;
41897;SDS011;27576;53.366;-1.498;2023-04-03T13:07:31;9.82;;;2.50;;
41897;SDS011;27576;53.366;-1.498;2023-04-03T13:10:17;7.30;;;2.30;;
41897;SDS011;27576;53.366;-1.498;2023-04-03T13:12:48;6.95;;;2.38;;
41897;SDS011;27576;53.366;-1.498;2023-04-03T13:15:17;4.85;;;2.75;;
41897;SDS011;27576;53.366;-1.498;2023-04-03T13:17:48;7.85;;;2.50;;
41897;SDS011;27576;53.366;-1.498;2023-04-03T13:23:08;8.52;;;2.08;;
41897;SDS011;27576;53.366;-1.498;2023-04-03T13:25:40;5.45;;;2.00;;
41897;SDS011;27576;53.366;-1.498;2023-04-03T13:28:07;7.03;;;2.28;;
41897;SDS011;27576;53.366;-1.498;2023-04-03T13:30:37;5.47;;;2.08;;
41897;SDS011;27576;53.366;-1.498;2023-04-03T13:33:05;3.97;;;1.80;;
41897;SDS011;27576;53.366;-1.498;2023-04-03T13:35:43;6.82;;;2.30;;
41897;SDS011;27576;53.366;-1.498;2023-04-03T13:40:51;4.82;;;1.90;;
41897;SDS011;27576;53.366;-1.498;2023-04-03T13:43:23;3.85;;;2.10;;
41897;SDS011;27576;53.366;-1.498;2023-04-03T13:45:58;5.65;;;2.42;;
41897;SDS011;27576;53.366;-1.498;2023-04-03T13:48:34;5.32;;;2.00;;
41897;SDS011;27576;53.366;-1.498;2023-04-03T13:51:04;6.63;;;2.55;;
41897;SDS011;27576;53.366;-1.498;2023-04-03T13:53:47;9.60;;;3.05;;
41897;SDS011;27576;53.366;-1.498;2023-04-03T13:56:21;5.43;;;2.00;;
41897;SDS011;27576;53.366;-1.498;2023-04-03T13:58:59;6.20;;;2.05;;
41897;SDS011;27576;53.366;-1.498;2023-04-03T14:02:08;3.35;;;2.08;;
41897;SDS011;27576;53.366;-1.498;2023-04-03T14:07:05;9.27;;;3.25;;
41897;SDS011;27576;53.366;-1.498;2023-04-03T14:09:31;11.20;;;5.15;;
41897;SDS011;27576;53.366;-1.498;2023-04-03T14:12:01;8.60;;;3.35;;
41897;SDS011;27576;53.366;-1.498;2023-04-03T14:14:32;4.30;;;2.33;;
41897;SDS011;27576;53.366;-1.498;2023-04-03T14:16:59;4.13;;;2.13;;
41897;SDS011;27576;53.366;-1.498;2023-04-03T14:19:28;11.52;;;2.67;;
41897;SDS011;27576;53.366;-1.498;2023-04-03T14:21:57;6.05;;;2.85;;
41897;SDS011;27576;53.366;-1.498;2023-04-03T14:24:23;6.15;;;2.30;;
41897;SDS011;27576;53.366;-1.498;2023-04-03T14:26:49;5.10;;;1.90;;
41897;SDS011;27576;53.366;-1.498;2023-04-03T14:29:17;5.43;;;2.00;;
41897;SDS011;27576;53.366;-1.498;2023-04-03T14:31:45;10.85;;;2.60;;
41897;SDS011;27576;53.366;-1.498;2023-04-03T14:34:11;7.30;;;2.53;;
41897;SDS011;27576;53.366;-1.498;2023-04-03T14:36:38;5.28;;;1.90;;
41897;SDS011;27576;53.366;-1.498;2023-04-03T14:39:05;4.28;;;1.90;;
41897;SDS011;27576;53.366;-1.498;2023-04-03T14:41:32;7.80;;;2.35;;
41897;SDS011;27576;53.366;-1.498;2023-04-03T14:43:58;5.72;;;2.28;;
41897;SDS011;27576;53.366;-1.498;2023-04-03T14:46:28;3.53;;;1.90;;
41897;SDS011;27576;53.366;-1.498;2023-04-03T14:48:56;4.40;;;1.85;;
41897;SDS011;27576;53.366;-1.498;2023-04-03T14:51:22;5.22;;;1.98;;
41897;SDS011;27576;53.366;-1.498;2023-04-03T14:53:47;6.90;;;2.17;;
41897;SDS011;27576;53.366;-1.498;2023-04-03T14:56:16;5.68;;;2.15;;
41897;SDS011;27576;53.366;-1.498;2023-04-03T14:58:41;4.30;;;2.13;;
41897;SDS011;27576;53.366;-1.498;2023-04-03T15:01:09;3.90;;;1.75;;
41897;SDS011;27576;53.366;-1.498;2023-04-03T15:03:36;4.40;;;2.08;;
41897;SDS011;27576;53.366;-1.498;2023-04-03T15:06:02;3.92;;;1.77;;
41897;SDS011;27576;53.366;-1.498;2023-04-03T15:08:28;2.80;;;1.85;;
41897;SDS011;27576;53.366;-1.498;2023-04-03T15:10:57;5.38;;;1.73;;
41897;SDS011;27576;53.366;-1.498;2023-04-03T15:13:23;4.85;;;1.63;;
41897;SDS011;27576;53.366;-1.498;2023-04-03T15:15:50;3.88;;;2.03;;
41897;SDS011;27576;53.366;-1.498;2023-04-03T15:18:17;5.32;;;2.30;;
41897;SDS011;27576;53.366;-1.498;2023-04-03T15:20:45;7.05;;;2.08;;
41897;SDS011;27576;53.366;-1.498;2023-04-03T15:23:12;3.63;;;1.92;;
41897;SDS011;27576;53.366;-1.498;2023-04-03T15:25:38;4.22;;;1.90;;
41897;SDS011;27576;53.366;-1.498;2023-04-03T15:28:04;8.57;;;2.30;;
41897;SDS011;27576;53.366;-1.498;2023-04-03T15:30:30;5.40;;;2.42;;
41897;SDS011;27576;53.366;-1.498;2023-04-03T15:32:56;6.05;;;2.22;;
41897;SDS011;27576;53.366;-1.498;2023-04-03T15:35:21;5.43;;;2.13;;
41897;SDS011;27576;53.366;-1.498;2023-04-03T15:37:47;3.22;;;1.60;;
41897;SDS011;27576;53.366;-1.498;2023-04-03T15:40:13;3.78;;;1.67;;
41897;SDS011;27576;53.366;-1.498;2023-04-03T15:42:39;2.72;;;1.48;;
41897;SDS011;27576;53.366;-1.498;2023-04-03T15:45:05;3.92;;;2.15;;
41897;SDS011;27576;53.366;-1.498;2023-04-03T15:47:31;2.65;;;1.90;;
41897;SDS011;27576;53.366;-1.498;2023-04-03T15:49:57;4.57;;;2.08;;
41897;SDS011;27576;53.366;-1.498;2023-04-03T15:52:23;7.28;;;1.95;;
41897;SDS011;27576;53.366;-1.498;2023-04-03T15:54:48;2.63;;;1.65;;
41897;SDS011;27576;53.366;-1.498;2023-04-03T15:57:14;3.88;;;1.90;;
41897;SDS011;27576;53.366;-1.498;2023-04-03T15:59:39;5.03;;;2.08;;
41897;SDS011;27576;53.366;-1.498;2023-04-03T16:02:05;3.63;;;1.90;;
41897;SDS011;27576;53.366;-1.498;2023-04-03T16:04:33;4.00;;;1.70;;
41897;SDS011;27576;53.366;-1.498;2023-04-03T16:07:02;4.82;;;2.47;;
41897;SDS011;27576;53.366;-1.498;2023-04-03T16:09:30;5.22;;;2.28;;
41897;SDS011;27576;53.366;-1.498;2023-04-03T16:11:57;3.72;;;2.30;;
41897;SDS011;27576;53.366;-1.498;2023-04-03T16:14:23;3.95;;;1.90;;
41897;SDS011;27576;53.366;-1.498;2023-04-03T16:16:48;3.70;;;2.13;;
41897;SDS011;27576;53.366;-1.498;2023-04-03T16:19:13;5.63;;;1.80;;
41897;SDS011;27576;53.366;-1.498;2023-04-03T16:21:39;8.80;;;2.35;;
41897;SDS011;27576;53.366;-1.498;2023-04-03T16:24:05;4.35;;;2.58;;
41897;SDS011;27576;53.366;-1.498;2023-04-03T16:26:30;4.05;;;2.47;;
41897;SDS011;27576;53.366;-1.498;2023-04-03T16:28:56;5.30;;;2.70;;
41897;SDS011;27576;53.366;-1.498;2023-04-03T16:31:21;4.50;;;1.83;;